createdAt,value
2022-08-26T00:02:08.236Z,99.90
2022-08-26T00:04:36.990Z,99.90
2022-08-26T00:07:05.675Z,99.90
2022-08-26T00:09:38.916Z,99.90
2022-08-26T00:12:09.292Z,99.90
2022-08-26T00:14:40.364Z,99.90
2022-08-26T00:17:10.085Z,99.90
2022-08-26T00:19:38.177Z,99.90
2022-08-26T00:22:06.192Z,99.90
2022-08-26T00:24:34.171Z,99.90
2022-08-26T00:27:02.132Z,99.90
2022-08-26T00:29:31.980Z,99.90
2022-08-26T00:32:04.328Z,99.90
2022-08-26T00:34:33.994Z,99.90
2022-08-26T00:37:01.941Z,99.90
2022-08-26T00:39:29.999Z,99.90
2022-08-26T00:41:57.910Z,99.90
2022-08-26T00:44:25.823Z,99.90
2022-08-26T00:46:58.507Z,99.90
2022-08-26T00:49:35.522Z,99.90
2022-08-26T00:52:09.829Z,99.90
2022-08-26T00:54:46.663Z,99.90
2022-08-26T00:57:17.537Z,99.90
2022-08-26T00:59:47.763Z,99.90
2022-08-26T01:02:20.190Z,99.90
2022-08-26T01:04:55.974Z,99.90
2022-08-26T01:07:27.537Z,99.90
2022-08-26T01:09:59.579Z,99.90
2022-08-26T01:12:30.241Z,99.90
2022-08-26T01:14:58.333Z,99.90
2022-08-26T01:17:26.545Z,99.90
2022-08-26T01:20:02.369Z,99.90
2022-08-26T01:22:41.485Z,99.90
2022-08-26T01:25:12.143Z,99.90
2022-08-26T01:27:40.282Z,99.90
2022-08-26T01:30:11.892Z,99.90
2022-08-26T01:32:41.016Z,99.90
2022-08-26T01:35:09.901Z,99.90
2022-08-26T01:37:41.589Z,99.90
2022-08-26T01:40:14.795Z,99.90
2022-08-26T01:42:46.612Z,99.90
2022-08-26T01:45:19.437Z,99.90
2022-08-26T01:47:49.711Z,99.90
2022-08-26T01:50:30.610Z,99.90
2022-08-26T01:53:05.772Z,99.90
2022-08-26T01:55:35.249Z,99.90
2022-08-26T01:58:09.762Z,99.90
2022-08-26T02:00:38.989Z,99.90
2022-08-26T02:03:22.151Z,99.90
2022-08-26T02:05:54.321Z,99.90
2022-08-26T02:08:28.894Z,99.90
2022-08-26T02:10:56.928Z,99.90
2022-08-26T02:13:27.699Z,99.90
2022-08-26T02:15:56.242Z,99.90
2022-08-26T02:18:25.931Z,99.90
2022-08-26T02:20:55.783Z,99.90
2022-08-26T02:23:25.129Z,99.90
2022-08-26T02:25:57.326Z,99.90
2022-08-26T02:28:27.899Z,99.90
2022-08-26T02:30:56.644Z,99.90
2022-08-26T02:33:24.763Z,99.90
2022-08-26T02:35:52.935Z,99.90
2022-08-26T02:38:21.044Z,99.90
2022-08-26T02:40:50.911Z,99.90
2022-08-26T02:43:18.965Z,99.90
2022-08-26T02:46:01.695Z,99.90
2022-08-26T02:48:30.038Z,99.90
2022-08-26T02:50:59.866Z,99.90
2022-08-26T02:53:27.875Z,99.90
2022-08-26T02:55:57.105Z,99.90
2022-08-26T02:58:27.783Z,99.90
2022-08-26T03:00:55.979Z,99.90
2022-08-26T03:03:23.912Z,99.90
2022-08-26T03:05:52.208Z,99.90
2022-08-26T03:08:20.114Z,99.90
2022-08-26T03:10:48.435Z,99.90
2022-08-26T03:13:19.668Z,99.90
2022-08-26T03:15:47.800Z,99.90
2022-08-26T03:18:16.171Z,99.90
2022-08-26T03:20:44.126Z,99.90
2022-08-26T03:23:12.598Z,99.90
2022-08-26T03:25:40.489Z,99.90
2022-08-26T03:28:09.653Z,99.90
2022-08-26T03:30:45.339Z,99.90
2022-08-26T03:33:14.771Z,99.90
2022-08-26T03:35:45.069Z,99.90
2022-08-26T03:38:13.019Z,99.90
2022-08-26T03:40:42.482Z,99.90
2022-08-26T03:43:12.393Z,99.90
2022-08-26T03:45:41.844Z,99.90
2022-08-26T03:48:11.322Z,99.90
2022-08-26T03:50:40.108Z,99.90
2022-08-26T03:53:13.117Z,99.90
2022-08-26T03:55:43.224Z,99.90
2022-08-26T03:58:11.524Z,99.90
2022-08-26T04:00:40.819Z,99.90
2022-08-26T04:03:12.857Z,99.90
2022-08-26T04:05:43.566Z,99.90
2022-08-26T04:08:12.805Z,99.90
2022-08-26T04:10:40.754Z,99.90
2022-08-26T04:13:08.737Z,99.90
2022-08-26T04:15:36.809Z,99.90
2022-08-26T04:18:06.201Z,99.90
2022-08-26T04:20:34.110Z,99.90
2022-08-26T04:23:02.074Z,99.90
2022-08-26T04:25:30.180Z,99.90
2022-08-26T04:27:58.193Z,99.90
2022-08-26T04:30:26.107Z,99.90
2022-08-26T04:32:53.997Z,99.90
2022-08-26T04:35:25.982Z,99.90
2022-08-26T04:37:55.393Z,99.90
2022-08-26T04:40:23.748Z,99.90
2022-08-26T04:42:51.745Z,99.90
2022-08-26T04:45:22.880Z,99.90
2022-08-26T04:47:54.674Z,99.90
2022-08-26T04:50:25.696Z,99.90
2022-08-26T04:52:55.330Z,99.90
2022-08-26T04:55:37.301Z,99.90
2022-08-26T04:58:10.214Z,99.90
2022-08-26T05:00:39.434Z,99.90
2022-08-26T05:03:10.186Z,99.90
2022-08-26T05:05:42.405Z,99.90
2022-08-26T05:08:11.550Z,99.90
2022-08-26T05:10:44.289Z,99.90
2022-08-26T05:13:15.551Z,99.90
2022-08-26T05:15:45.319Z,99.90
2022-08-26T05:18:14.834Z,99.90
2022-08-26T05:20:45.804Z,99.90
2022-08-26T05:23:15.569Z,99.90
2022-08-26T05:25:46.595Z,99.90
2022-08-26T05:28:16.928Z,99.90
2022-08-26T05:30:44.931Z,99.90
2022-08-26T05:33:13.508Z,99.90
2022-08-26T05:35:43.914Z,99.90
2022-08-26T05:38:14.479Z,99.90
2022-08-26T05:40:45.401Z,99.90
2022-08-26T05:43:14.543Z,99.90
2022-08-26T05:45:45.916Z,99.90
2022-08-26T05:48:15.090Z,99.90
2022-08-26T05:50:47.267Z,99.90
2022-08-26T05:53:17.678Z,99.90
2022-08-26T05:55:47.158Z,99.90
2022-08-26T05:58:17.479Z,99.90
2022-08-26T06:00:45.610Z,99.90
2022-08-26T06:03:13.828Z,99.90
2022-08-26T06:05:42.368Z,99.90
2022-08-26T06:08:14.171Z,99.90
2022-08-26T06:10:50.141Z,99.90
2022-08-26T06:13:19.922Z,99.20
2022-08-26T06:15:50.678Z,98.90
2022-08-26T06:18:22.086Z,98.80
2022-08-26T06:20:57.257Z,97.00
2022-08-26T06:23:46.872Z,95.90
2022-08-26T06:26:15.864Z,94.60
2022-08-26T06:28:45.343Z,95.30
2022-08-26T06:31:13.956Z,94.30
2022-08-26T06:33:41.868Z,93.10
2022-08-26T06:36:10.034Z,91.10
2022-08-26T06:38:39.242Z,89.40
2022-08-26T06:41:10.417Z,86.30
2022-08-26T06:43:38.580Z,82.70
2022-08-26T06:46:10.094Z,76.60
2022-08-26T06:48:40.082Z,72.80
2022-08-26T06:51:11.660Z,68.70
2022-08-26T06:53:45.464Z,66.00
2022-08-26T06:56:15.167Z,63.30
2022-08-26T06:58:43.651Z,62.30
2022-08-26T07:01:19.705Z,60.80
2022-08-26T07:03:49.951Z,62.10
2022-08-26T07:06:20.158Z,62.40
2022-08-26T07:08:50.564Z,64.80
2022-08-26T07:11:19.886Z,66.70
2022-08-26T07:13:49.062Z,68.50
2022-08-26T07:16:18.758Z,72.80
2022-08-26T07:18:48.444Z,73.20
2022-08-26T07:21:18.267Z,74.70
2022-08-26T07:23:47.010Z,77.20
2022-08-26T07:26:18.705Z,78.50
2022-08-26T07:28:48.581Z,79.70
2022-08-26T07:31:17.501Z,79.50
2022-08-26T07:33:46.087Z,78.10
2022-08-26T07:36:15.785Z,78.70
2022-08-26T07:38:44.397Z,81.00
2022-08-26T07:41:14.150Z,82.10
2022-08-26T07:43:43.888Z,83.40
2022-08-26T07:46:16.303Z,85.00
2022-08-26T07:48:46.177Z,84.80
2022-08-26T07:51:14.943Z,86.00
2022-08-26T07:53:42.905Z,84.10
2022-08-26T07:56:11.254Z,82.10
2022-08-26T07:58:39.726Z,81.40
2022-08-26T08:01:09.875Z,81.80
2022-08-26T08:03:37.876Z,80.80
2022-08-26T08:06:06.292Z,84.10
2022-08-26T08:08:35.448Z,85.30
2022-08-26T08:11:03.918Z,82.80
2022-08-26T08:13:33.851Z,82.80
2022-08-26T08:16:01.741Z,83.10
2022-08-26T08:18:31.017Z,83.30
2022-08-26T08:21:21.162Z,82.90
2022-08-26T08:23:49.709Z,83.50
2022-08-26T08:26:17.624Z,82.00
2022-08-26T08:28:47.998Z,79.60
2022-08-26T08:31:45.158Z,78.20
2022-08-26T08:34:12.110Z,79.40
2022-08-26T08:36:39.972Z,77.00
2022-08-26T08:39:09.584Z,77.00
2022-08-26T08:41:56.485Z,77.10
2022-08-26T08:47:03.677Z,77.40
2022-08-26T08:49:35.174Z,77.60
2022-08-26T08:52:09.838Z,77.60
2022-08-26T08:54:39.404Z,77.40
2022-08-26T08:57:15.698Z,77.30
2022-08-26T08:59:55.080Z,74.90
2022-08-26T09:02:30.954Z,73.40
2022-08-26T09:05:15.066Z,74.10
2022-08-26T09:07:49.095Z,73.30
2022-08-26T09:10:35.899Z,75.50
2022-08-26T09:13:07.586Z,74.90
2022-08-26T09:15:47.047Z,76.10
2022-08-26T09:18:28.809Z,74.80
2022-08-26T09:21:03.208Z,73.30
2022-08-26T09:23:33.969Z,74.80
2022-08-26T09:26:16.637Z,76.40
2022-08-26T09:28:49.120Z,76.70
2022-08-26T09:31:23.388Z,76.80
2022-08-26T09:34:06.117Z,76.60
2022-08-26T09:36:41.399Z,77.40
2022-08-26T09:39:26.467Z,78.40
2022-08-26T09:42:11.100Z,78.10
2022-08-26T09:44:56.961Z,76.90
2022-08-26T09:47:29.715Z,76.30
2022-08-26T09:50:09.551Z,76.00
2022-08-26T09:52:40.545Z,76.10
2022-08-26T09:55:14.384Z,76.20
2022-08-26T09:57:48.780Z,75.20
2022-08-26T10:00:30.080Z,73.30
2022-08-26T10:02:59.672Z,73.40
2022-08-26T10:05:43.664Z,71.40
2022-08-26T10:08:29.454Z,68.20
2022-08-26T10:10:59.925Z,68.70
2022-08-26T10:13:34.047Z,69.10
2022-08-26T10:16:14.359Z,64.60
2022-08-26T10:18:47.677Z,62.20
2022-08-26T10:21:21.964Z,60.00
2022-08-26T10:23:54.361Z,59.40
2022-08-26T10:26:29.250Z,55.70
2022-08-26T10:29:03.723Z,54.30
2022-08-26T10:31:38.230Z,51.90
2022-08-26T10:34:09.244Z,50.90
2022-08-26T10:39:49.412Z,49.00
2022-08-26T10:42:30.551Z,48.50
2022-08-26T10:45:11.611Z,50.30
2022-08-26T10:47:46.278Z,50.10
2022-08-26T10:50:18.050Z,48.00
2022-08-26T10:52:55.676Z,47.80
2022-08-26T10:55:30.927Z,46.60
2022-08-26T10:58:14.170Z,45.60
2022-08-26T11:01:17.477Z,43.90
2022-08-26T11:04:00.260Z,46.60
2022-08-26T11:06:30.405Z,44.80
2022-08-26T11:09:00.987Z,45.00
2022-08-26T11:11:50.751Z,46.50
2022-08-26T11:14:53.377Z,45.10
2022-08-26T11:18:00.300Z,42.40
2022-08-26T11:20:41.542Z,43.00
2022-08-26T11:23:39.236Z,41.10
2022-08-26T11:26:18.872Z,41.20
2022-08-26T11:29:11.972Z,42.30
2022-08-26T11:31:56.656Z,44.20
2022-08-26T11:34:53.942Z,44.30
2022-08-26T11:37:27.229Z,46.90
2022-08-26T11:39:57.564Z,50.00
2022-08-26T11:42:37.043Z,51.70
2022-08-26T11:45:23.359Z,55.80
2022-08-26T11:47:51.853Z,60.10
2022-08-26T11:50:25.006Z,63.40
2022-08-26T11:52:55.588Z,65.70
2022-08-26T11:55:24.326Z,65.40
2022-08-26T11:57:55.525Z,61.90
2022-08-26T12:00:27.532Z,61.60
2022-08-26T12:03:06.663Z,62.40
2022-08-26T12:05:39.473Z,62.90
2022-08-26T12:08:09.061Z,65.30
2022-08-26T12:10:38.114Z,66.10
2022-08-26T12:13:08.165Z,65.00
2022-08-26T12:15:37.439Z,64.10
2022-08-26T12:18:20.709Z,64.40
2022-08-26T12:20:58.821Z,66.60
2022-08-26T12:23:42.047Z,65.90
2022-08-26T12:26:14.932Z,67.30
2022-08-26T12:28:44.884Z,67.10
2022-08-26T12:31:25.737Z,67.00
2022-08-26T12:33:54.824Z,68.20
2022-08-26T12:36:31.362Z,67.50
2022-08-26T12:39:08.366Z,68.10
2022-08-26T12:41:45.239Z,67.60
2022-08-26T12:44:33.136Z,68.70
2022-08-26T12:47:09.686Z,67.60
2022-08-26T12:49:39.381Z,69.20
2022-08-26T12:52:10.316Z,69.20
2022-08-26T12:54:56.997Z,69.40
2022-08-26T12:57:29.063Z,69.30
2022-08-26T13:00:31.317Z,69.80
2022-08-26T13:03:02.032Z,69.20
2022-08-26T13:05:33.813Z,70.20
2022-08-26T13:08:13.396Z,69.60
2022-08-26T13:10:43.404Z,68.30
2022-08-26T13:13:11.375Z,68.70
2022-08-26T13:15:39.349Z,72.00
2022-08-26T13:18:08.622Z,69.70
2022-08-26T13:20:36.612Z,69.60
2022-08-26T13:23:04.466Z,71.00
2022-08-26T13:25:32.401Z,72.20
2022-08-26T13:28:00.312Z,71.00
2022-08-26T13:30:28.249Z,70.40
2022-08-26T13:33:00.454Z,69.40
2022-08-26T13:35:31.542Z,72.10
2022-08-26T13:37:59.445Z,71.10
2022-08-26T13:40:30.260Z,71.70
2022-08-26T13:43:01.876Z,71.40
2022-08-26T13:45:29.756Z,72.70
2022-08-26T13:47:58.486Z,74.90
2022-08-26T13:50:26.402Z,71.70
2022-08-26T13:52:55.622Z,71.80
2022-08-26T13:55:23.656Z,70.60
2022-08-26T13:57:52.193Z,72.00
2022-08-26T14:00:20.411Z,72.50
2022-08-26T14:02:48.720Z,72.80
2022-08-26T14:05:17.141Z,73.90
2022-08-26T14:07:45.069Z,74.80
2022-08-26T14:10:14.255Z,73.00
2022-08-26T14:12:42.278Z,73.80
2022-08-26T14:15:11.168Z,71.70
2022-08-26T14:17:40.007Z,71.50
2022-08-26T14:20:10.741Z,72.60
2022-08-26T14:22:57.448Z,72.90
2022-08-26T14:25:30.380Z,74.10
2022-08-26T14:27:58.305Z,72.80
2022-08-26T14:30:26.529Z,73.00
2022-08-26T14:32:57.137Z,73.30
2022-08-26T14:35:26.821Z,75.50
2022-08-26T14:37:54.737Z,73.50
2022-08-26T14:40:24.306Z,75.20
2022-08-26T14:42:55.525Z,74.10
2022-08-26T14:45:28.450Z,74.10
2022-08-26T14:47:56.974Z,76.40
2022-08-26T14:50:27.789Z,75.00
2022-08-26T14:53:13.366Z,75.50
2022-08-26T14:55:42.850Z,75.50
2022-08-26T14:58:12.528Z,76.60
2022-08-26T15:00:40.486Z,76.50
2022-08-26T15:03:09.090Z,78.10
2022-08-26T15:05:37.160Z,76.30
2022-08-26T15:08:10.374Z,77.10
2022-08-26T15:10:39.019Z,77.90
2022-08-26T15:13:06.917Z,77.00
2022-08-26T15:15:37.301Z,75.80
2022-08-26T15:18:05.959Z,76.70
2022-08-26T15:20:34.154Z,77.10
2022-08-26T15:23:06.020Z,76.30
2022-08-26T15:25:34.390Z,76.40
2022-08-26T15:28:02.410Z,77.60
2022-08-26T15:30:30.309Z,76.50
2022-08-26T15:32:59.529Z,77.70
2022-08-26T15:35:27.660Z,79.20
2022-08-26T15:38:01.112Z,78.10
2022-08-26T15:40:29.132Z,78.60
2022-08-26T15:43:11.389Z,77.60
2022-08-26T15:45:44.905Z,77.80
2022-08-26T15:48:14.300Z,77.10
2022-08-26T15:50:51.059Z,77.00
2022-08-26T15:53:19.039Z,78.20
2022-08-26T15:55:46.879Z,81.00
2022-08-26T15:58:16.095Z,82.40
2022-08-26T16:00:44.814Z,84.40
2022-08-26T16:03:14.137Z,86.00
2022-08-26T16:05:43.440Z,87.20
2022-08-26T16:08:12.360Z,87.80
2022-08-26T16:10:46.567Z,88.40
2022-08-26T16:13:17.455Z,88.10
2022-08-26T16:15:45.525Z,88.80
2022-08-26T16:18:15.451Z,89.20
2022-08-26T16:21:12.669Z,89.80
2022-08-26T16:23:38.760Z,90.10
2022-08-26T16:26:10.488Z,90.40
2022-08-26T16:28:39.255Z,90.60
2022-08-26T16:31:07.435Z,90.90
2022-08-26T16:33:37.660Z,90.90
2022-08-26T16:36:06.582Z,91.10
2022-08-26T16:38:35.042Z,91.20
2022-08-26T16:41:03.093Z,91.20
2022-08-26T16:43:31.081Z,91.40
2022-08-26T16:45:58.985Z,91.50
2022-08-26T16:48:27.056Z,91.50
2022-08-26T16:50:56.305Z,91.80
2022-08-26T16:53:24.765Z,91.30
2022-08-26T16:55:53.009Z,91.50
2022-08-26T16:58:22.380Z,91.80
2022-08-26T17:00:50.702Z,91.80
2022-08-26T17:03:18.779Z,91.90
2022-08-26T17:05:46.738Z,92.00
2022-08-26T17:08:28.354Z,92.30
2022-08-26T17:10:56.497Z,92.40
2022-08-26T17:13:35.213Z,92.50
2022-08-26T17:16:06.362Z,92.50
2022-08-26T17:18:35.228Z,92.70
2022-08-26T17:21:04.814Z,92.80
2022-08-26T17:23:34.213Z,93.10
2022-08-26T17:26:02.473Z,93.70
2022-08-26T17:28:31.825Z,93.80
2022-08-26T17:31:01.167Z,94.00
2022-08-26T17:33:29.442Z,94.30
2022-08-26T17:35:57.444Z,94.50
2022-08-26T17:38:25.965Z,94.90
2022-08-26T17:40:55.224Z,95.30
2022-08-26T17:43:23.192Z,95.30
2022-08-26T17:45:51.390Z,95.70
2022-08-26T17:48:19.315Z,96.00
2022-08-26T17:50:49.689Z,96.50
2022-08-26T17:53:18.757Z,96.70
2022-08-26T17:55:47.595Z,97.00
2022-08-26T17:58:17.945Z,97.50
2022-08-26T18:00:47.142Z,97.90
2022-08-26T18:03:15.380Z,98.50
2022-08-26T18:05:43.521Z,99.20
2022-08-26T18:08:11.461Z,99.80
2022-08-26T18:10:41.662Z,99.90
2022-08-26T18:13:09.731Z,99.90
2022-08-26T18:15:41.952Z,99.90
2022-08-26T18:18:10.065Z,99.90
2022-08-26T18:20:39.659Z,99.90
2022-08-26T18:23:07.780Z,99.90
2022-08-26T18:25:35.830Z,99.90
2022-08-26T18:28:04.074Z,99.90
2022-08-26T18:30:32.062Z,99.90
2022-08-26T18:33:01.409Z,99.90
2022-08-26T18:35:30.312Z,99.90
2022-08-26T18:38:01.848Z,99.90
2022-08-26T18:40:39.432Z,99.90
2022-08-26T18:43:07.457Z,99.90
2022-08-26T18:45:36.373Z,99.90
2022-08-26T18:48:06.321Z,99.90
2022-08-26T18:50:34.482Z,99.90
2022-08-26T18:53:03.277Z,99.90
2022-08-26T18:55:31.208Z,99.90
2022-08-26T18:57:59.094Z,99.90
2022-08-26T19:00:27.467Z,99.90
2022-08-26T19:02:56.103Z,99.90
2022-08-26T19:05:26.374Z,99.90
2022-08-26T19:07:54.454Z,99.90
2022-08-26T19:10:22.336Z,99.90
2022-08-26T19:12:51.831Z,99.90
2022-08-26T19:15:20.566Z,99.90
2022-08-26T19:17:48.462Z,99.90
2022-08-26T19:20:16.746Z,99.90
2022-08-26T19:22:46.214Z,99.90
2022-08-26T19:25:14.241Z,99.90
2022-08-26T19:27:42.176Z,99.90
2022-08-26T19:30:11.158Z,99.90
2022-08-26T19:32:39.042Z,99.90
2022-08-26T19:35:08.357Z,99.90
2022-08-26T19:37:36.693Z,99.90
2022-08-26T19:40:07.731Z,99.90
2022-08-26T19:42:35.691Z,99.90
2022-08-26T19:45:24.285Z,99.90
2022-08-26T19:47:53.501Z,99.90
2022-08-26T19:50:22.539Z,99.90
2022-08-26T19:52:50.441Z,99.90
2022-08-26T19:55:21.547Z,99.90
2022-08-26T19:57:50.145Z,99.90
2022-08-26T20:00:20.830Z,99.90
2022-08-26T20:02:49.451Z,99.90
2022-08-26T20:05:20.420Z,99.90
2022-08-26T20:07:48.385Z,99.90
2022-08-26T20:10:18.103Z,99.90
2022-08-26T20:12:48.367Z,99.90
2022-08-26T20:15:16.718Z,99.90
2022-08-26T20:17:44.595Z,99.90
2022-08-26T20:20:33.680Z,99.90
2022-08-26T20:23:03.532Z,99.90
2022-08-26T20:25:32.864Z,99.90
2022-08-26T20:28:02.596Z,99.90
2022-08-26T20:30:30.567Z,99.90
2022-08-26T20:32:58.419Z,99.90
2022-08-26T20:35:26.320Z,99.90
2022-08-26T20:37:54.212Z,99.90
2022-08-26T20:40:22.573Z,99.90
2022-08-26T20:42:50.459Z,99.90
2022-08-26T20:45:19.736Z,99.90
2022-08-26T20:47:47.627Z,99.90
2022-08-26T20:50:15.607Z,99.90
2022-08-26T20:52:43.440Z,99.90
2022-08-26T20:55:11.529Z,99.90
2022-08-26T20:57:40.222Z,99.90
2022-08-26T21:00:09.169Z,99.90
2022-08-26T21:02:38.400Z,99.90
2022-08-26T21:05:07.248Z,99.90
2022-08-26T21:07:35.548Z,99.90
2022-08-26T21:10:04.545Z,99.90
2022-08-26T21:12:32.415Z,99.90
2022-08-26T21:15:00.522Z,99.90
2022-08-26T21:17:29.250Z,99.90
2022-08-26T21:19:58.504Z,99.90
2022-08-26T21:22:26.594Z,99.90
2022-08-26T21:24:54.476Z,99.90
2022-08-26T21:27:26.395Z,99.90
2022-08-26T21:29:54.699Z,99.90
2022-08-26T21:32:22.595Z,99.90
2022-08-26T21:34:50.477Z,99.90
2022-08-26T21:37:19.709Z,99.90
2022-08-26T21:39:47.612Z,99.90
2022-08-26T21:42:15.819Z,99.90
2022-08-26T21:44:45.023Z,99.90
2022-08-26T21:47:20.565Z,99.90
2022-08-26T21:49:48.457Z,99.90
2022-08-26T21:52:16.395Z,99.90
2022-08-26T21:54:49.323Z,99.90
2022-08-26T21:57:17.445Z,99.90
2022-08-26T21:59:45.349Z,99.90
2022-08-26T22:02:13.443Z,99.90
2022-08-26T22:04:43.660Z,99.90
2022-08-26T22:07:14.648Z,99.90
2022-08-26T22:09:44.496Z,99.90
2022-08-26T22:12:14.404Z,99.90
2022-08-26T22:14:42.905Z,99.90
2022-08-26T22:17:10.816Z,99.90
2022-08-26T22:19:45.811Z,99.90
2022-08-26T22:22:15.359Z,99.90
2022-08-26T22:24:44.246Z,99.90
2022-08-26T22:27:15.042Z,99.90
2022-08-26T22:29:43.154Z,99.90
2022-08-26T22:32:11.065Z,99.90
2022-08-26T22:34:38.975Z,99.90
2022-08-26T22:37:06.965Z,99.90
2022-08-26T22:39:35.074Z,99.90
2022-08-26T22:42:03.964Z,99.90
2022-08-26T22:44:36.308Z,99.90
2022-08-26T22:47:04.288Z,99.90
2022-08-26T22:49:32.269Z,99.90
2022-08-26T22:52:00.132Z,99.90
2022-08-26T22:54:28.161Z,99.90
2022-08-26T22:56:56.365Z,99.90
2022-08-26T22:59:24.480Z,99.90
2022-08-26T23:01:53.678Z,99.90
2022-08-26T23:04:21.616Z,99.90
2022-08-26T23:06:49.616Z,99.90
2022-08-26T23:09:18.754Z,99.90
2022-08-26T23:11:48.318Z,99.90
2022-08-26T23:14:17.501Z,99.90
2022-08-26T23:16:45.501Z,99.90
2022-08-26T23:19:16.896Z,99.90
2022-08-26T23:21:45.590Z,99.90
2022-08-26T23:24:14.185Z,99.90
2022-08-26T23:26:43.289Z,99.90
2022-08-26T23:29:13.401Z,99.90
2022-08-26T23:31:42.535Z,99.90
2022-08-26T23:34:28.836Z,99.90
2022-08-26T23:37:00.048Z,99.90
2022-08-26T23:39:29.120Z,99.90
2022-08-26T23:41:57.935Z,99.90
2022-08-26T23:44:26.635Z,99.90
2022-08-26T23:46:55.048Z,99.90
2022-08-26T23:49:23.187Z,99.90
2022-08-26T23:52:08.537Z,99.90
2022-08-26T23:54:37.977Z,99.90
2022-08-26T23:57:06.750Z,99.90
2022-08-26T23:59:34.912Z,99.90
